Buckland, AK

4:51 AM AKDT on April 26, 2017 (GMT -0800)
Buckland | | Change Station

Elev 23 ft 65.98 °N, 161.15 °W | Updated 55 minutes ago

Overcast
Overcast
31 °F
Feels Like 31 °F
N
0
Wind Variable Wind from North

Today
High -- | Low -- °F
--% Chance of Precip.
Yesterday
High -- | Low -- °F
Precip. -- in
Pressure 29.63 in
Visibility 10.0 miles
Clouds Mostly Cloudy 4700 ft
Overcast 8500 ft
Dew Point 27 °F
Humidity 85%
Rainfall 0.00 in
Snow Depth Not available.
6:19 AM 11:07 PM
New Moon, 0% visible
METAR PABL 261156Z AUTO 00000KT 10SM BKN047 OVC085 M01/M03 A2962 RMK AO2 SLP032 T10061028 10033 21006 53003 FZRANO
Pressure 29.63 in
Visibility 10.0 miles
Clouds Mostly Cloudy 4700 ft
Overcast 8500 ft
Dew Point 27 °F
Humidity 85%
Rainfall 0.00 in
Snow Depth Not available.
6:19 AM 11:07 PM
New Moon, 0% visible
METAR PABL 261156Z AUTO 00000KT 10SM BKN047 OVC085 M01/M03 A2962 RMK AO2 SLP032 T10061028 10033 21006 53003 FZRANO

Get Severe Weather Alerts

Thanks for signing up!

Be on the lookout for a verification email in your inbox.

You'll start receiving the daily forecast at 8 AM.

×

10-Day Weather Forecast

Almanac

Astronomy

Apr. 26, 2017 Rise Set
Actual Time
Civil Twilight
Nautical Twilight
Astronomical Twilight
Moon
Length of Visible Light
Length of Day
Tomorrow will be .
, % of the Moon is Illuminated

Today's Extremes

State Highs State Lows

Community

WunderPhotos

WunderBlog® & News

Nearby

Air Quality

  Air Quality AQ Index Pollutant
Not available.

Snow Depth

Station Depth Elevation

Earthquake Activity

City Distance Mag. Time & Date
Minimum magnitude displayed is 2.5.

Coastal Water Temperatures

Place Temperature

Stations

Nearby Weather Stations

Station Location Temp. Windchill Dew Point Humidity Wind Precip. Elev Updated Type
                   

Watches & Warnings

There are currently no watches in effect.